createdAt,value
2022-11-15T00:09:01.716Z,63.65
2022-11-15T00:19:24.614Z,52.25
2022-11-15T00:29:46.102Z,45.15
2022-11-15T00:40:10.781Z,43.13
2022-11-15T00:50:32.248Z,46.60
2022-11-15T01:00:55.810Z,43.08
2022-11-15T01:11:17.245Z,48.05
2022-11-15T01:21:39.984Z,43.97
2022-11-15T01:32:01.393Z,40.75
2022-11-15T01:42:24.150Z,40.47
2022-11-15T01:52:45.618Z,43.55
2022-11-15T02:03:08.815Z,44.88
2022-11-15T02:13:30.673Z,43.20
2022-11-15T02:24:25.858Z,49.00
2022-11-15T02:34:56.929Z,48.42
2022-11-15T02:45:23.524Z,48.38
2022-11-15T02:55:49.642Z,50.42
2022-11-15T03:06:22.728Z,49.85
2022-11-15T03:16:50.402Z,42.58
2022-11-15T03:27:15.514Z,45.92
2022-11-15T03:37:42.705Z,48.05
2022-11-15T03:48:09.535Z,51.40
2022-11-15T03:58:32.006Z,57.13
2022-11-15T04:08:53.385Z,64.18
2022-11-15T04:19:33.349Z,61.13
2022-11-15T04:29:54.913Z,59.28
2022-11-15T04:40:18.485Z,56.03
2022-11-15T04:50:39.928Z,51.25
2022-11-15T05:01:09.036Z,66.07
2022-11-15T05:11:30.416Z,56.88
2022-11-15T05:21:53.014Z,56.72
2022-11-15T05:32:15.532Z,58.50
2022-11-15T05:42:38.417Z,54.95
2022-11-15T05:53:04.951Z,51.60
2022-11-15T06:03:28.701Z,58.17
2022-11-15T06:13:50.665Z,54.65
2022-11-15T06:24:13.559Z,51.72
2022-11-15T06:34:36.784Z,51.83
2022-11-15T06:44:59.512Z,46.15
2022-11-15T06:55:20.926Z,40.25
2022-11-15T07:05:43.582Z,38.15
2022-11-15T07:16:06.224Z,39.80
2022-11-15T07:26:29.244Z,33.63
2022-11-15T07:36:50.935Z,32.40
2022-11-15T07:47:13.613Z,34.42
2022-11-15T07:57:35.156Z,35.08
2022-11-15T08:07:58.644Z,35.67
2022-11-15T08:18:20.342Z,30.75
2022-11-15T08:28:43.878Z,26.83
2022-11-15T08:39:06.022Z,21.60
2022-11-15T08:49:28.692Z,18.83
2022-11-15T08:59:50.310Z,18.92
2022-11-15T09:10:13.301Z,12.35
2022-11-15T09:20:35.182Z,8.70
2022-11-15T09:31:00.825Z,9.82
2022-11-15T09:41:50.684Z,7.72
2022-11-15T09:52:13.969Z,7.80
2022-11-15T10:12:28.256Z,4.20
2022-11-15T10:22:41.510Z,5.85
2022-11-15T10:32:48.382Z,6.85
2022-11-15T10:43:07.622Z,6.38
2022-11-15T10:53:24.282Z,5.20
2022-11-15T11:03:40.681Z,6.60
2022-11-15T11:13:46.724Z,7.45
2022-11-15T11:24:00.784Z,11.02
2022-11-15T11:34:17.633Z,8.93
2022-11-15T11:44:30.576Z,7.47
2022-11-15T11:54:42.359Z,7.60
2022-11-15T12:04:50.653Z,8.38
2022-11-15T12:14:58.591Z,7.90
2022-11-15T12:25:06.711Z,7.75
2022-11-15T12:35:26.486Z,7.22
2022-11-15T12:45:32.320Z,5.97
2022-11-15T12:55:36.767Z,8.13
2022-11-15T13:06:11.432Z,5.75
2022-11-15T13:16:22.848Z,7.77
2022-11-15T13:26:40.987Z,6.65
2022-11-15T13:36:53.236Z,4.93
2022-11-15T13:47:07.495Z,5.03
2022-11-15T13:57:16.556Z,4.57
2022-11-15T14:07:21.701Z,8.10
2022-11-15T14:17:45.677Z,10.75
2022-11-15T14:28:38.586Z,8.77
2022-11-15T14:38:52.019Z,7.43
2022-11-15T14:48:57.781Z,5.43
2022-11-15T14:59:05.344Z,6.72
2022-11-15T15:09:15.288Z,5.57
2022-11-15T15:19:21.716Z,9.40
2022-11-15T15:29:24.732Z,5.63
2022-11-15T15:39:29.072Z,6.10
2022-11-15T15:49:32.104Z,9.93
2022-11-15T15:59:37.581Z,10.30
2022-11-15T16:09:57.854Z,8.33
2022-11-15T16:20:02.487Z,10.73
2022-11-15T16:30:06.441Z,9.88
2022-11-15T16:40:28.387Z,7.23
2022-11-15T16:50:35.116Z,11.00
2022-11-15T17:00:39.557Z,10.40
2022-11-15T17:10:43.081Z,16.60
2022-11-15T17:20:47.453Z,9.75
2022-11-15T17:30:50.478Z,10.43
2022-11-15T17:41:04.017Z,10.27
2022-11-15T17:51:10.775Z,6.50
2022-11-15T18:01:18.640Z,10.55
2022-11-15T18:11:24.835Z,8.77
2022-11-15T18:21:30.472Z,8.00
2022-11-15T18:31:33.396Z,11.73
2022-11-15T18:41:37.775Z,8.73
2022-11-15T18:51:41.960Z,11.33
2022-11-15T19:01:48.318Z,9.53
2022-11-15T19:11:52.225Z,13.95
2022-11-15T19:21:58.144Z,10.93
2022-11-15T19:32:01.165Z,16.83
2022-11-15T19:42:05.524Z,17.20
2022-11-15T19:52:08.737Z,17.87
2022-11-15T20:02:13.483Z,17.38
2022-11-15T20:12:16.394Z,15.70
2022-11-15T20:22:20.818Z,17.33
2022-11-15T20:32:23.846Z,17.00
2022-11-15T20:42:28.179Z,17.98
2022-11-15T20:52:31.101Z,17.03
2022-11-15T21:02:35.849Z,17.63
2022-11-15T21:12:38.957Z,22.20
2022-11-15T21:22:43.371Z,22.80
2022-11-15T21:32:46.650Z,20.23
2022-11-15T21:42:51.084Z,22.70
2022-11-15T21:52:54.018Z,21.47
2022-11-15T22:02:58.346Z,19.08
2022-11-15T22:13:01.399Z,23.50
2022-11-15T22:23:06.318Z,25.52
2022-11-15T22:43:14.752Z,26.20
2022-11-15T22:53:17.820Z,25.67
2022-11-15T23:03:22.599Z,22.83
2022-11-15T23:13:27.567Z,21.58
2022-11-15T23:23:31.889Z,24.42
2022-11-15T23:33:52.421Z,25.80
2022-11-15T23:43:56.735Z,21.35
2022-11-15T23:53:59.631Z,25.93
